sensor_id;sensor_type;location;lat;lon;timestamp;temperature;humidity
7341;DHT22;6870;50.944;6.932;2022-12-29T00:01:08;19.10;36.30
7341;DHT22;6870;50.944;6.932;2022-12-29T00:03:36;19.40;36.50
7341;DHT22;6870;50.944;6.932;2022-12-29T00:06:05;18.80;35.70
7341;DHT22;6870;50.944;6.932;2022-12-29T00:08:34;18.90;36.10
7341;DHT22;6870;50.944;6.932;2022-12-29T00:11:09;19.10;36.30
7341;DHT22;6870;50.944;6.932;2022-12-29T00:13:38;19.30;36.50
7341;DHT22;6870;50.944;6.932;2022-12-29T00:16:24;19.10;36.30
7341;DHT22;6870;50.944;6.932;2022-12-29T00:18:53;19.20;35.80
7341;DHT22;6870;50.944;6.932;2022-12-29T00:21:23;19.20;36.00
7341;DHT22;6870;50.944;6.932;2022-12-29T00:24:13;18.80;36.00
7341;DHT22;6870;50.944;6.932;2022-12-29T00:27:10;19.00;36.30
7341;DHT22;6870;50.944;6.932;2022-12-29T00:29:57;18.70;35.30
7341;DHT22;6870;50.944;6.932;2022-12-29T00:32:43;19.10;36.40
7341;DHT22;6870;50.944;6.932;2022-12-29T00:35:31;19.10;36.40
7341;DHT22;6870;50.944;6.932;2022-12-29T00:38:05;19.10;36.40
7341;DHT22;6870;50.944;6.932;2022-12-29T00:40:52;19.40;36.00
7341;DHT22;6870;50.944;6.932;2022-12-29T00:43:38;18.70;36.10
7341;DHT22;6870;50.944;6.932;2022-12-29T00:46:24;18.70;36.10
7341;DHT22;6870;50.944;6.932;2022-12-29T00:48:52;19.00;35.70
7341;DHT22;6870;50.944;6.932;2022-12-29T00:51:37;18.80;36.20
7341;DHT22;6870;50.944;6.932;2022-12-29T00:54:07;19.00;36.40
7341;DHT22;6870;50.944;6.932;2022-12-29T00:56:35;18.90;36.30
7341;DHT22;6870;50.944;6.932;2022-12-29T00:59:05;18.70;36.20
7341;DHT22;6870;50.944;6.932;2022-12-29T01:01:34;18.90;35.90
7341;DHT22;6870;50.944;6.932;2022-12-29T01:04:04;19.10;35.80
7341;DHT22;6870;50.944;6.932;2022-12-29T01:06:33;19.00;36.50
7341;DHT22;6870;50.944;6.932;2022-12-29T01:09:03;19.10;36.50
7341;DHT22;6870;50.944;6.932;2022-12-29T01:11:50;19.00;36.50
7341;DHT22;6870;50.944;6.932;2022-12-29T01:14:19;18.90;36.40
7341;DHT22;6870;50.944;6.932;2022-12-29T01:16:48;18.80;35.70
7341;DHT22;6870;50.944;6.932;2022-12-29T01:19:17;19.00;36.00
7341;DHT22;6870;50.944;6.932;2022-12-29T01:21:45;19.10;36.50
7341;DHT22;6870;50.944;6.932;2022-12-29T01:24:14;19.00;35.80
7341;DHT22;6870;50.944;6.932;2022-12-29T01:26:44;18.80;36.20
7341;DHT22;6870;50.944;6.932;2022-12-29T01:29:13;19.00;35.80
7341;DHT22;6870;50.944;6.932;2022-12-29T01:31:41;19.00;36.40
7341;DHT22;6870;50.944;6.932;2022-12-29T01:34:09;18.70;36.00
7341;DHT22;6870;50.944;6.932;2022-12-29T01:36:37;18.80;36.20
7341;DHT22;6870;50.944;6.932;2022-12-29T01:39:05;18.70;35.80
7341;DHT22;6870;50.944;6.932;2022-12-29T01:41:33;18.90;36.40
7341;DHT22;6870;50.944;6.932;2022-12-29T01:44:02;18.80;36.30
7341;DHT22;6870;50.944;6.932;2022-12-29T01:46:34;18.80;36.30
7341;DHT22;6870;50.944;6.932;2022-12-29T01:51:37;18.70;36.20
7341;DHT22;6870;50.944;6.932;2022-12-29T01:54:10;19.00;36.20
7341;DHT22;6870;50.944;6.932;2022-12-29T01:56:40;18.50;35.90
7341;DHT22;6870;50.944;6.932;2022-12-29T01:59:11;18.70;36.00
7341;DHT22;6870;50.944;6.932;2022-12-29T02:01:45;18.80;36.20
7341;DHT22;6870;50.944;6.932;2022-12-29T02:04:14;18.60;36.70
7341;DHT22;6870;50.944;6.932;2022-12-29T02:06:47;18.60;35.90
7341;DHT22;6870;50.944;6.932;2022-12-29T02:09:19;18.90;36.20
7341;DHT22;6870;50.944;6.932;2022-12-29T02:11:47;18.70;35.90
7341;DHT22;6870;50.944;6.932;2022-12-29T02:14:15;19.00;36.20
7341;DHT22;6870;50.944;6.932;2022-12-29T02:17:00;18.60;35.80
7341;DHT22;6870;50.944;6.932;2022-12-29T02:22:52;19.00;36.10
7341;DHT22;6870;50.944;6.932;2022-12-29T02:29:02;18.80;35.30
7341;DHT22;6870;50.944;6.932;2022-12-29T02:31:49;18.60;35.70
7341;DHT22;6870;50.944;6.932;2022-12-29T02:34:28;18.80;35.80
7341;DHT22;6870;50.944;6.932;2022-12-29T02:37:03;18.90;36.10
7341;DHT22;6870;50.944;6.932;2022-12-29T02:39:47;18.80;36.40
7341;DHT22;6870;50.944;6.932;2022-12-29T02:42:24;19.10;36.90
7341;DHT22;6870;50.944;6.932;2022-12-29T02:45:03;18.70;36.50
7341;DHT22;6870;50.944;6.932;2022-12-29T02:47:40;18.70;36.70
7341;DHT22;6870;50.944;6.932;2022-12-29T02:50:17;18.90;36.70
7341;DHT22;6870;50.944;6.932;2022-12-29T02:52:50;18.80;36.80
7341;DHT22;6870;50.944;6.932;2022-12-29T02:55:19;18.90;36.50
7341;DHT22;6870;50.944;6.932;2022-12-29T02:57:46;18.70;36.10
7341;DHT22;6870;50.944;6.932;2022-12-29T03:00:16;19.20;36.70
7341;DHT22;6870;50.944;6.932;2022-12-29T03:03:18;18.70;36.10
7341;DHT22;6870;50.944;6.932;2022-12-29T03:06:05;18.90;36.90
7341;DHT22;6870;50.944;6.932;2022-12-29T03:08:45;18.90;37.00
7341;DHT22;6870;50.944;6.932;2022-12-29T03:11:16;18.60;36.70
7341;DHT22;6870;50.944;6.932;2022-12-29T03:14:18;19.20;37.20
7341;DHT22;6870;50.944;6.932;2022-12-29T03:17:20;18.70;36.80
7341;DHT22;6870;50.944;6.932;2022-12-29T03:19:58;18.70;36.80
7341;DHT22;6870;50.944;6.932;2022-12-29T03:22:31;19.00;37.20
7341;DHT22;6870;50.944;6.932;2022-12-29T03:25:08;18.70;37.00
7341;DHT22;6870;50.944;6.932;2022-12-29T03:27:40;19.00;37.20
7341;DHT22;6870;50.944;6.932;2022-12-29T03:30:10;18.70;36.70
7341;DHT22;6870;50.944;6.932;2022-12-29T03:32:42;18.80;37.10
7341;DHT22;6870;50.944;6.932;2022-12-29T03:35:16;18.80;37.00
7341;DHT22;6870;50.944;6.932;2022-12-29T03:37:50;18.70;37.00
7341;DHT22;6870;50.944;6.932;2022-12-29T03:40:21;18.70;36.90
7341;DHT22;6870;50.944;6.932;2022-12-29T03:42:50;19.00;37.30
7341;DHT22;6870;50.944;6.932;2022-12-29T03:45:19;18.90;37.10
7341;DHT22;6870;50.944;6.932;2022-12-29T03:47:47;18.80;36.90
7341;DHT22;6870;50.944;6.932;2022-12-29T03:50:17;19.30;37.50
7341;DHT22;6870;50.944;6.932;2022-12-29T03:52:45;18.90;37.10
7341;DHT22;6870;50.944;6.932;2022-12-29T03:55:13;18.70;36.80
7341;DHT22;6870;50.944;6.932;2022-12-29T03:57:41;19.00;37.00
7341;DHT22;6870;50.944;6.932;2022-12-29T04:00:10;19.10;37.20
7341;DHT22;6870;50.944;6.932;2022-12-29T04:02:39;18.70;36.30
7341;DHT22;6870;50.944;6.932;2022-12-29T04:05:08;19.10;37.00
7341;DHT22;6870;50.944;6.932;2022-12-29T04:07:37;18.80;37.00
7341;DHT22;6870;50.944;6.932;2022-12-29T04:10:06;19.10;37.00
7341;DHT22;6870;50.944;6.932;2022-12-29T04:12:34;18.70;36.90
7341;DHT22;6870;50.944;6.932;2022-12-29T04:15:03;19.00;37.10
7341;DHT22;6870;50.944;6.932;2022-12-29T04:17:31;18.70;36.70
7341;DHT22;6870;50.944;6.932;2022-12-29T04:19:59;19.00;37.00
7341;DHT22;6870;50.944;6.932;2022-12-29T04:22:43;19.00;37.30
7341;DHT22;6870;50.944;6.932;2022-12-29T04:25:12;19.00;37.20
7341;DHT22;6870;50.944;6.932;2022-12-29T04:27:40;18.80;37.00
7341;DHT22;6870;50.944;6.932;2022-12-29T04:30:09;18.80;36.90
7341;DHT22;6870;50.944;6.932;2022-12-29T04:32:38;19.00;37.30
7341;DHT22;6870;50.944;6.932;2022-12-29T04:35:06;18.70;37.00
7341;DHT22;6870;50.944;6.932;2022-12-29T04:37:35;19.00;37.00
7341;DHT22;6870;50.944;6.932;2022-12-29T04:40:06;19.00;36.50
7341;DHT22;6870;50.944;6.932;2022-12-29T04:42:34;19.00;37.20
7341;DHT22;6870;50.944;6.932;2022-12-29T04:45:03;19.00;37.30
7341;DHT22;6870;50.944;6.932;2022-12-29T04:47:31;18.80;37.10
7341;DHT22;6870;50.944;6.932;2022-12-29T04:50:00;18.60;36.90
7341;DHT22;6870;50.944;6.932;2022-12-29T04:52:28;18.70;36.90
7341;DHT22;6870;50.944;6.932;2022-12-29T04:54:56;18.70;37.10
7341;DHT22;6870;50.944;6.932;2022-12-29T04:57:25;19.00;37.50
7341;DHT22;6870;50.944;6.932;2022-12-29T04:59:54;19.10;37.10
7341;DHT22;6870;50.944;6.932;2022-12-29T05:02:22;19.10;37.40
7341;DHT22;6870;50.944;6.932;2022-12-29T05:04:50;18.90;37.20
7341;DHT22;6870;50.944;6.932;2022-12-29T05:07:18;19.00;37.30
7341;DHT22;6870;50.944;6.932;2022-12-29T05:09:46;19.00;37.30
7341;DHT22;6870;50.944;6.932;2022-12-29T05:12:15;18.70;36.80
7341;DHT22;6870;50.944;6.932;2022-12-29T05:14:45;19.00;37.30
7341;DHT22;6870;50.944;6.932;2022-12-29T05:17:13;19.20;37.50
7341;DHT22;6870;50.944;6.932;2022-12-29T05:19:41;19.30;37.70
7341;DHT22;6870;50.944;6.932;2022-12-29T05:22:09;18.90;37.40
7341;DHT22;6870;50.944;6.932;2022-12-29T05:24:37;19.10;37.20
7341;DHT22;6870;50.944;6.932;2022-12-29T05:27:05;18.80;37.20
7341;DHT22;6870;50.944;6.932;2022-12-29T05:29:33;19.40;37.70
7341;DHT22;6870;50.944;6.932;2022-12-29T05:32:02;19.10;37.60
7341;DHT22;6870;50.944;6.932;2022-12-29T05:34:31;19.00;38.00
7341;DHT22;6870;50.944;6.932;2022-12-29T05:36:59;19.10;37.40
7341;DHT22;6870;50.944;6.932;2022-12-29T05:39:29;18.90;37.20
7341;DHT22;6870;50.944;6.932;2022-12-29T05:41:57;19.10;37.20
7341;DHT22;6870;50.944;6.932;2022-12-29T05:44:25;19.10;37.30
7341;DHT22;6870;50.944;6.932;2022-12-29T05:46:53;19.10;37.20
7341;DHT22;6870;50.944;6.932;2022-12-29T05:49:22;19.20;37.50
7341;DHT22;6870;50.944;6.932;2022-12-29T05:51:50;19.20;37.40
7341;DHT22;6870;50.944;6.932;2022-12-29T05:54:18;19.30;37.50
7341;DHT22;6870;50.944;6.932;2022-12-29T05:56:46;18.80;37.20
7341;DHT22;6870;50.944;6.932;2022-12-29T05:59:14;19.40;37.70
7341;DHT22;6870;50.944;6.932;2022-12-29T06:01:42;19.30;37.10
7341;DHT22;6870;50.944;6.932;2022-12-29T06:04:10;18.90;37.30
7341;DHT22;6870;50.944;6.932;2022-12-29T06:06:40;19.10;37.30
7341;DHT22;6870;50.944;6.932;2022-12-29T06:09:09;19.20;37.30
7341;DHT22;6870;50.944;6.932;2022-12-29T06:11:37;19.30;37.50
7341;DHT22;6870;50.944;6.932;2022-12-29T06:14:05;19.00;37.20
7341;DHT22;6870;50.944;6.932;2022-12-29T06:16:33;19.00;37.10
7341;DHT22;6870;50.944;6.932;2022-12-29T06:19:02;18.80;37.00
7341;DHT22;6870;50.944;6.932;2022-12-29T06:21:30;18.80;37.00
7341;DHT22;6870;50.944;6.932;2022-12-29T06:24:00;19.10;37.20
7341;DHT22;6870;50.944;6.932;2022-12-29T06:26:28;19.10;37.10
7341;DHT22;6870;50.944;6.932;2022-12-29T06:28:56;19.20;37.20
7341;DHT22;6870;50.944;6.932;2022-12-29T06:31:24;19.20;36.70
7341;DHT22;6870;50.944;6.932;2022-12-29T06:33:52;19.40;37.40
7341;DHT22;6870;50.944;6.932;2022-12-29T06:36:20;19.20;37.30
7341;DHT22;6870;50.944;6.932;2022-12-29T06:38:48;19.30;37.20
7341;DHT22;6870;50.944;6.932;2022-12-29T06:41:20;19.10;37.20
7341;DHT22;6870;50.944;6.932;2022-12-29T06:43:57;19.50;37.50
7341;DHT22;6870;50.944;6.932;2022-12-29T06:46:25;19.30;37.20
7341;DHT22;6870;50.944;6.932;2022-12-29T06:48:53;19.20;37.10
7341;DHT22;6870;50.944;6.932;2022-12-29T06:51:21;19.40;37.40
7341;DHT22;6870;50.944;6.932;2022-12-29T06:53:49;19.00;37.00
7341;DHT22;6870;50.944;6.932;2022-12-29T06:56:17;18.90;36.90
7341;DHT22;6870;50.944;6.932;2022-12-29T06:58:47;19.40;37.30
7341;DHT22;6870;50.944;6.932;2022-12-29T07:01:15;19.40;37.30
7341;DHT22;6870;50.944;6.932;2022-12-29T07:03:43;19.20;37.10
7341;DHT22;6870;50.944;6.932;2022-12-29T07:06:11;19.20;37.00
7341;DHT22;6870;50.944;6.932;2022-12-29T07:08:39;19.50;37.40
7341;DHT22;6870;50.944;6.932;2022-12-29T07:11:07;19.10;37.00
7341;DHT22;6870;50.944;6.932;2022-12-29T07:13:36;19.10;36.90
7341;DHT22;6870;50.944;6.932;2022-12-29T07:16:09;19.20;36.60
7341;DHT22;6870;50.944;6.932;2022-12-29T07:18:37;19.50;37.40
7341;DHT22;6870;50.944;6.932;2022-12-29T07:21:05;19.20;36.90
7341;DHT22;6870;50.944;6.932;2022-12-29T07:23:33;19.30;36.90
7341;DHT22;6870;50.944;6.932;2022-12-29T07:26:02;19.20;36.70
7341;DHT22;6870;50.944;6.932;2022-12-29T07:28:32;19.30;37.00
7341;DHT22;6870;50.944;6.932;2022-12-29T07:31:00;19.40;37.00
7341;DHT22;6870;50.944;6.932;2022-12-29T07:33:30;19.30;37.00
7341;DHT22;6870;50.944;6.932;2022-12-29T07:35:59;19.40;37.10
7341;DHT22;6870;50.944;6.932;2022-12-29T07:38:28;19.10;36.90
7341;DHT22;6870;50.944;6.932;2022-12-29T07:40:58;19.20;36.30
7341;DHT22;6870;50.944;6.932;2022-12-29T07:43:27;19.50;37.10
7341;DHT22;6870;50.944;6.932;2022-12-29T07:45:55;19.10;37.00
7341;DHT22;6870;50.944;6.932;2022-12-29T07:48:23;18.90;36.90
7341;DHT22;6870;50.944;6.932;2022-12-29T07:50:53;19.00;36.90
7341;DHT22;6870;50.944;6.932;2022-12-29T07:53:21;19.30;37.20
7341;DHT22;6870;50.944;6.932;2022-12-29T07:55:49;19.20;37.10
7341;DHT22;6870;50.944;6.932;2022-12-29T07:58:17;19.30;36.90
7341;DHT22;6870;50.944;6.932;2022-12-29T08:00:45;19.40;37.40
7341;DHT22;6870;50.944;6.932;2022-12-29T08:03:14;19.10;37.20
7341;DHT22;6870;50.944;6.932;2022-12-29T08:05:42;19.30;37.70
7341;DHT22;6870;50.944;6.932;2022-12-29T08:08:11;19.20;38.00
7341;DHT22;6870;50.944;6.932;2022-12-29T08:10:39;19.50;38.60
7341;DHT22;6870;50.944;6.932;2022-12-29T08:13:07;19.20;38.50
7341;DHT22;6870;50.944;6.932;2022-12-29T08:15:37;19.40;38.10
7341;DHT22;6870;50.944;6.932;2022-12-29T08:18:05;19.50;39.30
7341;DHT22;6870;50.944;6.932;2022-12-29T08:20:33;19.30;38.80
7341;DHT22;6870;50.944;6.932;2022-12-29T08:23:02;19.20;40.20
7341;DHT22;6870;50.944;6.932;2022-12-29T08:25:31;18.90;38.90
7341;DHT22;6870;50.944;6.932;2022-12-29T08:27:59;19.40;39.70
7341;DHT22;6870;50.944;6.932;2022-12-29T08:30:27;19.20;39.50
7341;DHT22;6870;50.944;6.932;2022-12-29T08:32:55;19.50;39.90
7341;DHT22;6870;50.944;6.932;2022-12-29T08:35:23;19.40;40.00
7341;DHT22;6870;50.944;6.932;2022-12-29T08:37:52;19.20;39.90
7341;DHT22;6870;50.944;6.932;2022-12-29T08:40:20;19.20;39.80
7341;DHT22;6870;50.944;6.932;2022-12-29T08:42:50;19.40;40.00
7341;DHT22;6870;50.944;6.932;2022-12-29T08:45:18;19.20;39.90
7341;DHT22;6870;50.944;6.932;2022-12-29T08:47:46;19.60;40.20
7341;DHT22;6870;50.944;6.932;2022-12-29T08:50:14;19.20;39.30
7341;DHT22;6870;50.944;6.932;2022-12-29T08:52:43;19.20;39.40
7341;DHT22;6870;50.944;6.932;2022-12-29T08:55:11;19.20;39.50
7341;DHT22;6870;50.944;6.932;2022-12-29T08:57:39;19.50;39.80
7341;DHT22;6870;50.944;6.932;2022-12-29T09:00:10;19.30;39.70
7341;DHT22;6870;50.944;6.932;2022-12-29T09:02:38;19.50;39.90
7341;DHT22;6870;50.944;6.932;2022-12-29T09:05:07;19.50;39.50
7341;DHT22;6870;50.944;6.932;2022-12-29T09:07:36;19.20;39.00
7341;DHT22;6870;50.944;6.932;2022-12-29T09:10:05;19.50;39.40
7341;DHT22;6870;50.944;6.932;2022-12-29T09:12:34;19.20;39.50
7341;DHT22;6870;50.944;6.932;2022-12-29T09:15:04;19.20;39.20
7341;DHT22;6870;50.944;6.932;2022-12-29T09:17:34;19.00;38.60
7341;DHT22;6870;50.944;6.932;2022-12-29T09:20:09;19.20;39.30
7341;DHT22;6870;50.944;6.932;2022-12-29T09:22:38;19.50;39.80
7341;DHT22;6870;50.944;6.932;2022-12-29T09:25:07;19.30;39.80
7341;DHT22;6870;50.944;6.932;2022-12-29T09:27:36;19.60;39.40
7341;DHT22;6870;50.944;6.932;2022-12-29T09:30:06;19.30;38.50
7341;DHT22;6870;50.944;6.932;2022-12-29T09:32:38;19.60;38.80
7341;DHT22;6870;50.944;6.932;2022-12-29T09:35:10;19.80;38.80
7341;DHT22;6870;50.944;6.932;2022-12-29T09:37:38;19.50;37.40
7341;DHT22;6870;50.944;6.932;2022-12-29T09:40:09;19.40;37.40
7341;DHT22;6870;50.944;6.932;2022-12-29T09:42:58;19.70;36.90
7341;DHT22;6870;50.944;6.932;2022-12-29T09:45:43;19.90;36.90
7341;DHT22;6870;50.944;6.932;2022-12-29T09:48:18;19.80;37.10
7341;DHT22;6870;50.944;6.932;2022-12-29T09:50:51;19.90;37.10
7341;DHT22;6870;50.944;6.932;2022-12-29T09:53:25;19.70;36.10
7341;DHT22;6870;50.944;6.932;2022-12-29T09:55:57;20.10;36.60
7341;DHT22;6870;50.944;6.932;2022-12-29T09:58:30;20.00;36.30
7341;DHT22;6870;50.944;6.932;2022-12-29T10:01:03;20.10;36.50
7341;DHT22;6870;50.944;6.932;2022-12-29T10:03:43;20.20;36.40
7341;DHT22;6870;50.944;6.932;2022-12-29T10:06:17;20.10;35.60
7341;DHT22;6870;50.944;6.932;2022-12-29T10:08:56;20.20;36.10
7341;DHT22;6870;50.944;6.932;2022-12-29T10:11:43;20.30;36.20
7341;DHT22;6870;50.944;6.932;2022-12-29T10:14:31;20.20;36.00
7341;DHT22;6870;50.944;6.932;2022-12-29T10:17:13;20.20;35.80
7341;DHT22;6870;50.944;6.932;2022-12-29T10:20:01;20.50;36.20
7341;DHT22;6870;50.944;6.932;2022-12-29T10:22:48;20.40;35.70
7341;DHT22;6870;50.944;6.932;2022-12-29T10:25:29;20.40;35.70
7341;DHT22;6870;50.944;6.932;2022-12-29T10:28:03;20.20;36.40
7341;DHT22;6870;50.944;6.932;2022-12-29T10:30:32;20.30;35.70
7341;DHT22;6870;50.944;6.932;2022-12-29T10:33:04;20.40;35.40
7341;DHT22;6870;50.944;6.932;2022-12-29T10:35:37;20.40;34.20
7341;DHT22;6870;50.944;6.932;2022-12-29T10:38:15;20.30;34.90
7341;DHT22;6870;50.944;6.932;2022-12-29T10:40:49;20.60;35.10
7341;DHT22;6870;50.944;6.932;2022-12-29T10:43:24;20.50;34.90
7341;DHT22;6870;50.944;6.932;2022-12-29T10:45:56;20.60;35.00
7341;DHT22;6870;50.944;6.932;2022-12-29T10:48:30;20.40;34.20
7341;DHT22;6870;50.944;6.932;2022-12-29T10:51:04;20.30;34.50
7341;DHT22;6870;50.944;6.932;2022-12-29T10:53:38;20.50;35.50
7341;DHT22;6870;50.944;6.932;2022-12-29T10:56:15;20.80;34.50
7341;DHT22;6870;50.944;6.932;2022-12-29T10:58:50;20.50;34.20
7341;DHT22;6870;50.944;6.932;2022-12-29T11:01:18;20.70;34.30
7341;DHT22;6870;50.944;6.932;2022-12-29T11:03:53;20.70;34.50
7341;DHT22;6870;50.944;6.932;2022-12-29T11:06:28;20.50;34.10
7341;DHT22;6870;50.944;6.932;2022-12-29T11:08:58;20.60;34.10
7341;DHT22;6870;50.944;6.932;2022-12-29T11:11:34;20.40;33.90
7341;DHT22;6870;50.944;6.932;2022-12-29T11:14:11;20.70;34.10
7341;DHT22;6870;50.944;6.932;2022-12-29T11:16:41;20.70;33.00
7341;DHT22;6870;50.944;6.932;2022-12-29T11:19:21;20.40;34.30
7341;DHT22;6870;50.944;6.932;2022-12-29T11:21:51;20.50;34.20
7341;DHT22;6870;50.944;6.932;2022-12-29T11:24:23;20.40;33.70
7341;DHT22;6870;50.944;6.932;2022-12-29T11:26:53;20.60;33.80
7341;DHT22;6870;50.944;6.932;2022-12-29T11:29:26;20.50;33.10
7341;DHT22;6870;50.944;6.932;2022-12-29T11:31:57;20.30;32.30
7341;DHT22;6870;50.944;6.932;2022-12-29T11:34:30;20.40;31.50
7341;DHT22;6870;50.944;6.932;2022-12-29T11:37:04;20.40;31.60
7341;DHT22;6870;50.944;6.932;2022-12-29T11:39:37;20.50;30.80
7341;DHT22;6870;50.944;6.932;2022-12-29T11:42:14;20.80;31.20
7341;DHT22;6870;50.944;6.932;2022-12-29T11:44:45;20.70;31.00
7341;DHT22;6870;50.944;6.932;2022-12-29T11:47:23;20.70;31.00
7341;DHT22;6870;50.944;6.932;2022-12-29T11:49:57;20.80;31.50
7341;DHT22;6870;50.944;6.932;2022-12-29T11:52:29;20.60;31.40
7341;DHT22;6870;50.944;6.932;2022-12-29T11:55:00;20.90;31.70
7341;DHT22;6870;50.944;6.932;2022-12-29T11:57:32;20.50;31.30
7341;DHT22;6870;50.944;6.932;2022-12-29T12:00:05;20.70;31.70
7341;DHT22;6870;50.944;6.932;2022-12-29T12:02:47;20.50;31.70
7341;DHT22;6870;50.944;6.932;2022-12-29T12:05:25;20.80;31.90
7341;DHT22;6870;50.944;6.932;2022-12-29T12:08:05;20.80;32.10
7341;DHT22;6870;50.944;6.932;2022-12-29T12:10:48;20.40;32.20
7341;DHT22;6870;50.944;6.932;2022-12-29T12:13:26;20.90;32.50
7341;DHT22;6870;50.944;6.932;2022-12-29T12:16:04;20.80;32.30
7341;DHT22;6870;50.944;6.932;2022-12-29T12:18:39;20.70;32.50
7341;DHT22;6870;50.944;6.932;2022-12-29T12:21:16;20.70;31.90
7341;DHT22;6870;50.944;6.932;2022-12-29T12:24:08;20.50;31.60
7341;DHT22;6870;50.944;6.932;2022-12-29T12:26:56;20.40;31.40
7341;DHT22;6870;50.944;6.932;2022-12-29T12:29:33;20.70;31.90
7341;DHT22;6870;50.944;6.932;2022-12-29T12:32:11;20.70;32.10
7341;DHT22;6870;50.944;6.932;2022-12-29T12:34:44;20.60;32.10
7341;DHT22;6870;50.944;6.932;2022-12-29T12:37:36;20.60;32.20
7341;DHT22;6870;50.944;6.932;2022-12-29T12:40:31;20.40;31.70
7341;DHT22;6870;50.944;6.932;2022-12-29T12:43:18;20.60;32.50
7341;DHT22;6870;50.944;6.932;2022-12-29T12:46:03;20.50;32.50
7341;DHT22;6870;50.944;6.932;2022-12-29T12:49:04;20.70;32.60
7341;DHT22;6870;50.944;6.932;2022-12-29T12:51:44;20.60;32.50
7341;DHT22;6870;50.944;6.932;2022-12-29T12:54:27;20.70;33.00
7341;DHT22;6870;50.944;6.932;2022-12-29T12:57:12;20.80;32.10
7341;DHT22;6870;50.944;6.932;2022-12-29T12:59:49;20.70;31.80
7341;DHT22;6870;50.944;6.932;2022-12-29T13:02:32;20.90;32.50
7341;DHT22;6870;50.944;6.932;2022-12-29T13:05:25;20.80;32.60
7341;DHT22;6870;50.944;6.932;2022-12-29T13:08:42;20.80;32.60
7341;DHT22;6870;50.944;6.932;2022-12-29T13:11:28;20.50;32.40
7341;DHT22;6870;50.944;6.932;2022-12-29T13:14:19;20.70;32.50
7341;DHT22;6870;50.944;6.932;2022-12-29T13:16:58;20.90;32.60
7341;DHT22;6870;50.944;6.932;2022-12-29T13:19:34;20.50;32.20
7341;DHT22;6870;50.944;6.932;2022-12-29T13:22:09;20.60;32.30
7341;DHT22;6870;50.944;6.932;2022-12-29T13:24:50;21.00;32.50
7341;DHT22;6870;50.944;6.932;2022-12-29T13:27:33;20.70;32.80
7341;DHT22;6870;50.944;6.932;2022-12-29T13:30:10;20.80;32.00
7341;DHT22;6870;50.944;6.932;2022-12-29T13:32:49;20.80;31.80
7341;DHT22;6870;50.944;6.932;2022-12-29T13:35:31;20.80;31.50
7341;DHT22;6870;50.944;6.932;2022-12-29T13:38:11;20.70;31.60
7341;DHT22;6870;50.944;6.932;2022-12-29T13:40:45;20.90;32.50
7341;DHT22;6870;50.944;6.932;2022-12-29T13:43:16;20.50;32.30
7341;DHT22;6870;50.944;6.932;2022-12-29T13:45:52;20.40;32.10
7341;DHT22;6870;50.944;6.932;2022-12-29T13:48:34;20.40;32.30
7341;DHT22;6870;50.944;6.932;2022-12-29T13:51:05;20.40;32.50
7341;DHT22;6870;50.944;6.932;2022-12-29T13:53:41;20.40;32.40
7341;DHT22;6870;50.944;6.932;2022-12-29T13:56:24;20.70;32.60
7341;DHT22;6870;50.944;6.932;2022-12-29T13:58:56;20.70;32.50
7341;DHT22;6870;50.944;6.932;2022-12-29T14:01:32;20.50;32.30
7341;DHT22;6870;50.944;6.932;2022-12-29T14:04:08;20.70;32.50
7341;DHT22;6870;50.944;6.932;2022-12-29T14:06:38;20.50;32.00
7341;DHT22;6870;50.944;6.932;2022-12-29T14:09:33;20.60;32.40
7341;DHT22;6870;50.944;6.932;2022-12-29T14:12:30;20.40;32.20
7341;DHT22;6870;50.944;6.932;2022-12-29T14:15:05;20.90;32.80
7341;DHT22;6870;50.944;6.932;2022-12-29T14:17:43;20.60;32.50
7341;DHT22;6870;50.944;6.932;2022-12-29T14:20:20;20.70;32.40
7341;DHT22;6870;50.944;6.932;2022-12-29T14:22:57;20.60;32.50
7341;DHT22;6870;50.944;6.932;2022-12-29T14:25:53;20.60;32.50
7341;DHT22;6870;50.944;6.932;2022-12-29T14:28:28;20.50;32.20
7341;DHT22;6870;50.944;6.932;2022-12-29T14:30:57;20.70;32.50
7341;DHT22;6870;50.944;6.932;2022-12-29T14:33:30;20.70;32.40
7341;DHT22;6870;50.944;6.932;2022-12-29T14:36:18;20.60;32.40
7341;DHT22;6870;50.944;6.932;2022-12-29T14:38:47;20.40;31.90
7341;DHT22;6870;50.944;6.932;2022-12-29T14:41:22;20.40;31.70
7341;DHT22;6870;50.944;6.932;2022-12-29T14:43:59;20.40;31.80
7341;DHT22;6870;50.944;6.932;2022-12-29T14:46:48;20.40;32.00
7341;DHT22;6870;50.944;6.932;2022-12-29T14:49:24;20.40;31.90
7341;DHT22;6870;50.944;6.932;2022-12-29T14:52:04;20.40;31.70
7341;DHT22;6870;50.944;6.932;2022-12-29T14:54:45;20.40;32.20
7341;DHT22;6870;50.944;6.932;2022-12-29T14:57:30;20.40;32.20
7341;DHT22;6870;50.944;6.932;2022-12-29T15:00:06;20.50;32.30
7341;DHT22;6870;50.944;6.932;2022-12-29T15:02:45;20.40;32.70
7341;DHT22;6870;50.944;6.932;2022-12-29T15:05:30;20.50;32.70
7341;DHT22;6870;50.944;6.932;2022-12-29T15:08:02;20.40;32.50
7341;DHT22;6870;50.944;6.932;2022-12-29T15:10:38;20.60;32.50
7341;DHT22;6870;50.944;6.932;2022-12-29T15:13:16;20.40;32.20
7341;DHT22;6870;50.944;6.932;2022-12-29T15:15:45;20.60;32.40
7341;DHT22;6870;50.944;6.932;2022-12-29T15:18:23;20.40;31.70
7341;DHT22;6870;50.944;6.932;2022-12-29T15:20:57;20.60;32.00
7341;DHT22;6870;50.944;6.932;2022-12-29T15:23:26;20.50;31.50
7341;DHT22;6870;50.944;6.932;2022-12-29T15:25:56;20.40;31.80
7341;DHT22;6870;50.944;6.932;2022-12-29T15:28:25;20.70;32.00
7341;DHT22;6870;50.944;6.932;2022-12-29T15:30:55;20.30;31.70
7341;DHT22;6870;50.944;6.932;2022-12-29T15:33:26;20.20;31.50
7341;DHT22;6870;50.944;6.932;2022-12-29T15:36:03;20.60;32.00
7341;DHT22;6870;50.944;6.932;2022-12-29T15:38:33;20.60;32.50
7341;DHT22;6870;50.944;6.932;2022-12-29T15:41:15;20.40;32.30
7341;DHT22;6870;50.944;6.932;2022-12-29T15:43:58;20.30;32.40
7341;DHT22;6870;50.944;6.932;2022-12-29T15:46:31;20.30;32.40
7341;DHT22;6870;50.944;6.932;2022-12-29T15:48:59;20.40;32.20
7341;DHT22;6870;50.944;6.932;2022-12-29T15:51:30;20.50;32.50
7341;DHT22;6870;50.944;6.932;2022-12-29T15:54:01;20.30;32.20
7341;DHT22;6870;50.944;6.932;2022-12-29T15:56:30;20.30;32.60
7341;DHT22;6870;50.944;6.932;2022-12-29T15:59:00;20.20;32.70
7341;DHT22;6870;50.944;6.932;2022-12-29T16:01:30;20.50;32.30
7341;DHT22;6870;50.944;6.932;2022-12-29T16:04:02;20.20;32.70
7341;DHT22;6870;50.944;6.932;2022-12-29T16:06:35;20.10;32.70
7341;DHT22;6870;50.944;6.932;2022-12-29T16:09:06;20.10;33.00
7341;DHT22;6870;50.944;6.932;2022-12-29T16:11:37;20.10;32.90
7341;DHT22;6870;50.944;6.932;2022-12-29T16:14:09;20.30;33.20
7341;DHT22;6870;50.944;6.932;2022-12-29T16:16:39;20.20;33.20
7341;DHT22;6870;50.944;6.932;2022-12-29T16:19:13;20.10;33.10
7341;DHT22;6870;50.944;6.932;2022-12-29T16:21:44;20.30;33.40
7341;DHT22;6870;50.944;6.932;2022-12-29T16:24:15;20.20;33.20
7341;DHT22;6870;50.944;6.932;2022-12-29T16:26:49;20.10;33.30
7341;DHT22;6870;50.944;6.932;2022-12-29T16:29:27;20.30;33.50
7341;DHT22;6870;50.944;6.932;2022-12-29T16:31:58;20.20;33.60
7341;DHT22;6870;50.944;6.932;2022-12-29T16:34:31;19.80;33.40
7341;DHT22;6870;50.944;6.932;2022-12-29T16:37:03;20.00;33.20
7341;DHT22;6870;50.944;6.932;2022-12-29T16:39:34;19.70;33.30
7341;DHT22;6870;50.944;6.932;2022-12-29T16:42:32;20.00;33.80
7341;DHT22;6870;50.944;6.932;2022-12-29T16:48:34;20.00;33.80
7341;DHT22;6870;50.944;6.932;2022-12-29T16:51:05;19.90;32.30
7341;DHT22;6870;50.944;6.932;2022-12-29T16:53:42;19.90;32.80
7341;DHT22;6870;50.944;6.932;2022-12-29T16:56:17;20.10;32.80